Latest Weather Observations for Kingfish B

IDV60801

Issued at 6:02 am EDT Tuesday 9 February 2016 (issued every 30 minutes, with the page automatically refreshed every 10 minutes)

About weather observations | Map of weather stations | Latest weather observations for VIC | Other Formats
Station Details ID: 400139 Name: KINGFISH B (PLATFORM) Lat: -38.60 Lon: 148.19 Height: 31.4 m
Data from the previous 72 hours. | See also: Recent months for locations in Victoria
Date/Time
EDT
Temp
°C
App
Temp
°C
Dew
Point
Rel
Hum
%
Delta-T
°C
Wind Press
QNH
hPa
Press
MSL
hPa
Rain
since 9 am
mm
Dir
 
Spd
km/h
Gust
km/h
Spd
kts
Gust
kts
09/06:00am 19.1 19.3 14.2 73 2.8 WSW 6 9 3 5 1020.1 - -
09/05:50am 19.1 19.1 14.2 73 2.8 WSW 7 11 4 6 1020.1 - -
09/05:40am 19.0 19.0 14.2 73 2.8 WSW 7 9 4 5 1020.1 - -
09/05:30am 19.0 19.0 14.3 74 2.7 WSW 7 11 4 6 1020.0 - -
09/05:20am 19.0 19.0 14.3 74 2.7 WSW 7 13 4 7 1020.0 - -
09/05:10am 18.9 18.9 14.2 74 2.7 SW 7 13 4 7 1019.9 - -
09/05:00am 18.9 18.5 14.2 74 2.7 SW 9 13 5 7 1019.9 - -
09/04:50am 18.9 18.6 14.3 74 2.7 SW 9 13 5 7 1019.8 - -
09/04:40am 19.0 18.3 14.3 74 2.7 SW 11 15 6 8 1020.0 - -
09/04:30am 18.9 17.8 14.4 75 2.6 SW 13 15 7 8 1020.0 - -
09/04:20am 18.9 17.8 14.4 75 2.6 SW 13 17 7 9 1020.0 - -
09/04:10am 18.9 17.8 14.3 74 2.7 SW 13 19 7 10 1020.1 - -
09/04:00am 18.9 17.4 14.3 74 2.7 SW 15 17 8 9 1020.2 - -
09/03:50am 19.0 17.6 14.4 74 2.7 SW 15 19 8 10 1020.2 - -
09/03:40am 19.0 17.1 14.3 74 2.7 SW 17 22 9 12 1020.1 - -
09/03:30am 19.0 16.6 14.3 74 2.7 SW 20 22 11 12 1020.0 - -
09/03:20am 19.0 16.8 14.4 74 2.7 SW 19 24 10 13 1020.1 - -
09/03:10am 19.0 16.8 14.4 74 2.7 SW 19 22 10 12 1020.3 - -
09/03:00am 18.9 17.0 14.2 74 2.7 SW 17 22 9 12 1020.3 - -
09/02:50am 19.0 16.8 14.3 74 2.7 SW 19 22 10 12 1020.2 - -
09/02:40am 19.1 16.9 14.4 74 2.7 SW 19 24 10 13 1020.4 - -
09/02:30am 19.1 16.7 14.4 74 2.7 SW 20 24 11 13 1020.4 - -
09/02:20am 19.1 16.7 14.3 73 2.8 SW 20 24 11 13 1020.4 - -
09/02:10am 19.2 16.8 14.4 74 2.8 SW 20 22 11 12 1020.6 - -
09/02:00am 19.1 16.7 14.3 73 2.8 SW 20 22 11 12 1020.6 - -
09/01:50am 19.2 17.0 14.3 73 2.8 SW 19 24 10 13 1020.6 - -
09/01:40am 19.3 17.1 14.3 73 2.9 SW 19 24 10 13 1020.7 - -
09/01:30am 19.3 17.1 14.4 73 2.8 SW 19 24 10 13 1020.9 - -
09/01:20am 19.3 16.9 14.3 73 2.9 SW 20 24 11 13 1020.9 - -
09/01:10am 19.4 17.0 14.4 73 2.9 SW 20 26 11 14 1021.0 - -
09/01:00am 19.3 16.5 14.4 73 2.8 SW 22 28 12 15 1020.8 - -
09/12:50am 19.5 16.7 14.4 72 3.0 SW 22 26 12 14 1020.7 - -
09/12:30am 19.6 16.9 14.5 72 3.0 SW 22 28 12 15 1021.1 - -
09/12:20am 19.6 17.3 14.6 73 2.9 SW 20 26 11 14 1021.1 - -
09/12:10am 19.6 16.9 14.7 73 2.9 SW 22 28 12 15 1021.1 - -
09/12:00am 19.7 17.4 14.7 73 2.9 SW 20 26 11 14 1021.0 - -
 
Date/Time
EDT
Temp
°C
App
Temp
°C
Dew
Point
Rel
Hum
%
Delta-T
°C
Wind Press
QNH
hPa
Press
MSL
hPa
Rain
since 9 am
mm
Dir
 
Spd
km/h
Gust
km/h
Spd
kts
Gust
kts
08/11:50pm 19.8 17.5 14.7 72 3.0 SW 20 24 11 13 1021.2 - -
08/11:40pm 19.9 17.3 14.8 72 3.0 SW 22 28 12 15 1021.3 - -
08/11:30pm 20.0 17.0 14.9 72 3.0 SSW 24 30 13 16 1021.3 - -
08/11:10pm 20.0 15.9 14.9 72 3.0 SSW 30 33 16 18 1021.3 - -
08/11:00pm 19.9 16.1 14.8 72 3.0 SSW 28 33 15 18 1021.1 - -
08/10:50pm 20.0 17.1 15.0 73 2.9 SSW 24 32 13 17 1021.0 - -
08/10:40pm 20.0 17.4 14.9 72 3.0 SSW 22 30 12 16 1021.2 - -
08/10:30pm 20.0 16.6 14.8 72 3.0 SSW 26 32 14 17 1021.2 - -
08/10:20pm 20.0 16.7 14.9 72 3.0 SSW 26 32 14 17 1020.9 - -
08/10:10pm 19.8 16.0 14.7 72 3.0 SSW 28 32 15 17 1021.0 - -
08/10:00pm 19.9 16.5 14.8 72 3.0 SSW 26 32 14 17 1020.8 - -
08/09:50pm 20.0 16.6 14.8 72 3.0 SSW 26 30 14 16 1020.5 - -
08/09:40pm 20.1 16.7 14.8 71 3.1 SSW 26 33 14 18 1020.3 - -
08/09:30pm 20.0 16.6 14.7 71 3.1 SSW 26 33 14 18 1020.3 - -
08/09:20pm 19.9 16.9 14.7 72 3.0 SSW 24 28 13 15 1020.1 - -
08/09:10pm 19.9 16.4 14.6 71 3.1 SSW 26 32 14 17 1020.1 - -
08/09:00pm 20.0 16.6 14.7 71 3.1 SSW 26 32 14 17 1020.0 - -
08/08:50pm 20.2 16.0 14.7 70 3.2 SSW 30 37 16 20 1019.9 - -
08/08:40pm 20.3 15.8 14.9 71 3.2 SSW 32 35 17 19 1019.8 - -
08/08:30pm 20.3 16.2 14.8 70 3.2 SSW 30 35 16 19 1019.9 - -
08/08:20pm 20.2 16.0 14.7 70 3.2 SSW 30 35 16 19 1019.7 - -
08/08:10pm 20.2 15.6 14.6 70 3.3 SSW 32 35 17 19 1019.8 - -
08/08:00pm 20.4 15.8 14.7 70 3.3 SSW 32 37 17 20 1019.7 - -
08/07:50pm 20.6 16.1 14.8 69 3.4 SSW 32 35 17 19 1019.2 - -
08/07:40pm 20.6 15.9 14.9 70 3.4 SSW 33 37 18 20 1019.5 - -
08/07:20pm 20.7 16.2 15.3 71 3.2 SSW 33 39 18 21 1019.3 - -
08/07:10pm 20.7 16.4 15.3 71 3.2 SSW 32 35 17 19 1019.3 - -
08/07:00pm 20.8 16.8 15.3 71 3.3 SSW 30 35 16 19 1019.3 - -
08/06:50pm 20.6 17.0 15.2 71 3.2 SSW 28 33 15 18 1019.5 - -
08/06:40pm 20.6 16.1 15.0 70 3.3 SSW 32 37 17 20 1019.4 - -
08/06:30pm 20.9 16.6 15.3 70 3.3 SSW 32 35 17 19 1019.3 - -
08/06:20pm 21.0 16.7 15.3 70 3.4 SSW 32 37 17 20 1019.4 - -
08/06:10pm 21.0 17.1 15.5 71 3.3 SSW 30 35 16 19 1019.3 - -
08/06:00pm 20.9 17.4 15.4 71 3.3 SSW 28 35 15 19 1019.5 - -
08/05:50pm 21.0 17.1 15.5 71 3.3 SSW 30 35 16 19 1019.5 - -
08/05:40pm 21.1 17.6 15.5 70 3.3 SSW 28 33 15 18 1019.7 - -
08/05:30pm 21.2 17.0 15.6 70 3.3 SSW 32 35 17 19 1019.6 - -
08/05:20pm 21.0 16.7 15.5 71 3.3 SSW 32 37 17 20 1019.6 - -
08/05:10pm 21.0 16.7 15.4 70 3.3 SSW 32 35 17 19 1019.8 - -
08/05:00pm 21.2 17.3 15.5 70 3.4 SSW 30 35 16 19 1019.8 - -
08/04:50pm 21.3 17.8 15.4 69 3.5 SSW 28 35 15 19 1019.8 - -
08/04:40pm 21.6 18.1 15.5 68 3.6 SSW 28 33 15 18 1019.7 - -
08/04:30pm 21.5 17.6 15.4 68 3.6 SSW 30 37 16 20 1019.8 - -
08/04:20pm 21.7 18.1 15.3 67 3.8 SSW 28 32 15 17 1019.6 - -
08/04:10pm 21.8 18.1 15.1 65 4.0 SW 28 32 15 17 1019.5 - -
08/04:00pm 21.9 18.3 15.3 66 3.9 SSW 28 33 15 18 1019.6 - -
08/03:50pm 22.0 17.9 15.0 64 4.2 SW 30 33 16 18 1019.7 - -
08/03:40pm 21.9 17.5 15.2 65 4.0 SSW 32 37 17 20 1019.7 - -
08/03:30pm 22.1 18.7 15.7 67 3.8 SW 28 35 15 19 1019.7 - -
08/03:20pm 22.2 18.8 15.7 66 3.9 SW 28 33 15 18 1019.7 - -
08/03:10pm 22.2 18.8 15.8 67 3.8 SW 28 33 15 18 1019.6 - -
08/03:00pm 22.2 18.8 15.9 67 3.8 SW 28 32 15 17 1019.6 - -
08/02:50pm 22.4 19.9 16.1 67 3.8 SW 24 30 13 16 1019.7 - -
08/02:40pm 22.3 19.7 15.8 66 3.9 SW 24 30 13 16 1019.6 - -
08/02:30pm 22.3 19.3 15.8 66 3.9 SW 26 30 14 16 1019.6 - -
08/02:20pm 22.5 19.9 15.8 66 4.0 SW 24 30 13 16 1019.7 - -
08/02:10pm 22.6 19.6 15.9 66 4.0 SW 26 28 14 15 1019.6 - -
08/02:00pm 22.8 20.2 16.0 65 4.1 SW 24 28 13 15 1019.7 - -
08/01:50pm 22.8 20.6 16.0 65 4.1 SW 22 28 12 15 1019.8 - -
08/01:40pm 23.0 21.2 16.0 64 4.2 SW 20 24 11 13 1019.9 - -
08/01:30pm 23.2 21.1 16.1 64 4.3 SW 22 28 12 15 1019.8 - -
08/01:20pm 23.1 20.5 16.0 64 4.3 SW 24 28 13 15 1019.9 - -
08/01:10pm 22.9 20.7 15.9 64 4.2 SW 22 28 12 15 1019.9 - -
08/01:00pm 22.9 20.3 15.9 64 4.2 SW 24 28 13 15 1019.9 - -
08/12:50pm 22.7 19.7 15.9 65 4.1 SW 26 30 14 16 1019.8 - -
08/12:40pm 22.6 20.8 15.9 66 4.0 SW 20 26 11 14 1019.9 - -
08/12:30pm 22.6 20.4 15.9 66 4.0 SW 22 28 12 15 1019.8 - -
08/12:20pm 22.6 20.4 16.0 66 4.0 SW 22 28 12 15 1020.0 - -
08/12:10pm 22.5 20.4 16.1 67 3.9 SW 22 28 12 15 1020.0 - -
08/12:00pm 22.5 20.2 15.8 66 4.0 SW 22 26 12 14 1019.9 - -
08/11:50am 22.8 20.6 16.0 65 4.1 SW 22 26 12 14 1019.9 - -
08/11:40am 22.8 21.0 16.0 65 4.1 SW 20 26 11 14 1020.0 - -
08/11:30am 22.8 21.2 15.9 65 4.2 SW 19 22 10 12 1019.9 - -
08/11:20am 22.7 21.1 15.9 65 4.1 SW 19 22 10 12 1019.7 - -
08/11:10am 22.3 20.5 15.9 67 3.9 SW 20 24 11 13 1019.8 - -
08/11:00am 21.9 20.2 15.8 68 3.7 SW 19 22 10 12 1019.7 - -
08/10:50am 21.7 19.8 15.7 68 3.6 SW 20 24 11 13 1019.7 - -
08/10:40am 21.9 20.1 15.9 68 3.6 SW 20 24 11 13 1019.7 - -
08/10:30am 21.7 19.5 16.0 70 3.4 SW 22 28 12 15 1019.6 - -
08/10:20am 21.8 19.7 16.2 70 3.4 SW 22 28 12 15 1019.5 - -
08/10:10am 21.6 19.6 16.5 73 3.1 SSW 22 26 12 14 1019.6 - -
08/10:00am 20.9 19.1 16.1 74 2.9 SSW 20 26 11 14 1019.5 - -
08/09:50am 20.9 19.2 16.3 75 2.8 SW 20 24 11 13 1019.4 - -
08/09:40am 20.7 19.1 16.4 76 2.6 SW 20 24 11 13 1019.2 - -
08/09:30am 20.7 19.3 16.6 77 2.5 SSW 19 24 10 13 1019.3 - -
08/09:20am 20.2 18.5 16.2 78 2.4 SSW 20 26 11 14 1019.3 - -
08/09:10am 20.3 18.6 16.2 77 2.5 SSW 20 24 11 13 1019.3 - -
08/09:00am 20.6 18.9 16.3 76 2.6 SSW 20 26 11 14 1019.1 - -
08/08:50am 20.7 18.8 16.6 77 2.5 SSW 22 28 12 15 1019.0 - -
08/08:40am 20.8 18.9 16.8 78 2.4 SSW 22 26 12 14 1019.0 - -
08/08:30am 21.0 18.9 17.2 79 2.3 SSW 24 28 13 15 1018.9 - -
08/08:20am 20.7 18.7 17.3 81 2.1 SSW 24 30 13 16 1018.8 - -
08/08:10am 20.4 18.0 17.3 82 1.9 SSW 26 30 14 16 1018.7 - -
08/08:00am 20.1 17.6 17.2 83 1.8 SSW 26 30 14 16 1018.7 - -
08/07:50am 20.1 17.7 17.4 84 1.7 SSW 26 33 14 18 1018.7 - -
08/07:40am 20.2 17.9 17.6 85 1.6 SSW 26 30 14 16 1018.6 - -
08/07:30am 20.2 17.9 17.6 85 1.6 SSW 26 32 14 17 1018.6 - -
08/07:20am 20.3 18.4 17.7 85 1.6 SSW 24 28 13 15 1018.4 - -
08/07:10am 20.3 18.8 17.7 85 1.6 SSW 22 26 12 14 1018.2 - -
08/07:00am 20.4 19.3 17.8 85 1.6 SSW 20 24 11 13 1018.2 - -
08/06:50am 20.4 19.3 17.8 85 1.6 SSW 20 24 11 13 1017.9 - -
08/06:40am 20.7 19.8 18.1 85 1.6 SSW 20 22 11 12 1017.9 - -
08/06:30am 20.6 19.8 18.0 85 1.6 SSW 19 24 10 13 1017.8 - -
08/06:20am 20.8 19.9 18.2 85 1.6 SSW 20 26 11 14 1017.8 - -
08/06:10am 20.8 20.0 18.4 86 1.5 SSW 20 24 11 13 1017.7 - -
08/06:00am 20.7 20.1 18.4 87 1.4 SSW 19 22 10 12 1017.5 - -
08/05:50am 20.5 20.5 18.2 87 1.4 SW 15 19 8 10 1017.2 - -
08/05:40am 20.5 20.9 18.2 87 1.4 SW 13 17 7 9 1017.2 - -
08/05:20am 20.6 21.5 18.3 87 1.4 SW 11 13 6 7 1017.1 - -
08/05:10am 20.6 21.8 18.3 87 1.4 SW 9 13 5 7 1017.0 - -
08/05:00am 20.7 22.3 18.3 86 1.5 SW 7 9 4 5 1017.1 - -
08/04:50am 20.7 22.3 18.3 86 1.5 SW 7 9 4 5 1017.1 - -
08/04:40am 20.8 22.4 18.3 85 1.6 SW 7 7 4 4 1017.2 - -
08/04:30am 20.9 22.6 18.4 85 1.6 SW 7 7 4 4 1017.1 - -
08/03:00am 21.6 24.5 18.1 80 2.2 CALM 0 2 0 1 1017.3 - -
08/02:50am 21.7 24.5 17.9 79 2.4 CALM 0 2 0 1 1017.4 - -
08/02:30am 22.8 26.1 19.0 79 2.4 CALM 0 0 0 0 1017.4 - -
08/02:20am 23.0 26.3 19.1 78 2.5 CALM 0 0 0 0 1017.4 - -
08/02:10am 23.2 26.5 19.2 78 2.5 CALM 0 0 0 0 1017.5 - -
08/02:00am 23.4 26.9 19.5 79 2.5 CALM 0 0 0 0 1017.4 - -
08/01:50am 23.0 26.5 19.5 80 2.2 CALM 0 0 0 0 1017.6 - -
08/01:40am 22.7 26.1 19.4 81 2.1 CALM 0 0 0 0 1017.5 - -
08/01:30am 22.1 25.4 19.1 83 1.9 CALM 0 0 0 0 1017.5 - -
08/01:20am 21.5 24.6 18.6 83 1.8 CALM 0 2 0 1 1017.5 - -
08/01:10am 21.2 24.1 18.3 83 1.8 CALM 0 4 0 2 1017.4 - -
08/01:00am 21.2 24.1 18.3 83 1.8 CALM 0 4 0 2 1017.4 - -
08/12:50am 21.3 24.3 18.4 83 1.8 CALM 0 4 0 2 1017.5 - -
08/12:40am 21.3 23.9 18.3 83 1.9 NNW 2 4 1 2 1017.4 - -
08/12:30am 21.3 23.8 18.2 82 1.9 N 2 4 1 2 1017.5 - -
08/12:20am 21.4 23.6 18.3 82 1.9 N 4 6 2 3 1017.4 - -
08/12:10am 21.5 23.3 18.2 81 2.1 N 6 7 3 4 1017.4 - -
 
Date/Time
EDT
Temp
°C
App
Temp
°C
Dew
Point
Rel
Hum
%
Delta-T
°C
Wind Press
QNH
hPa
Press
MSL
hPa
Rain
since 9 am
mm
Dir
 
Spd
km/h
Gust
km/h
Spd
kts
Gust
kts
07/11:50pm 21.6 23.4 18.2 81 2.1 N 6 6 3 3 1017.5 - -
07/11:40pm 21.6 23.7 18.2 81 2.1 NNE 4 6 2 3 1017.6 - -
07/11:30pm 21.7 23.8 18.2 80 2.2 NNE 4 6 2 3 1017.7 - -
07/11:20pm 21.5 23.5 17.9 80 2.2 NNE 4 6 2 3 1017.7 - -
07/11:00pm 21.6 23.3 18.0 80 2.2 NNE 6 6 3 3 1017.7 - -
07/10:50pm 21.5 23.1 17.9 80 2.2 NNE 6 7 3 4 1017.6 - -
07/10:40pm 21.5 23.2 18.0 80 2.2 NNE 6 6 3 3 1017.6 - -
07/10:30pm 21.6 23.7 18.0 80 2.2 NNE 4 6 2 3 1017.6 - -
07/10:20pm 21.6 23.7 18.0 80 2.2 NE 4 6 2 3 1017.5 - -
07/10:10pm 21.7 23.8 18.1 80 2.2 NE 4 6 2 3 1017.3 - -
07/10:00pm 21.7 23.4 18.1 80 2.2 NE 6 7 3 4 1017.2 - -
07/09:20pm 21.8 23.3 17.7 77 2.5 NE 6 7 3 4 1017.0 - -
07/09:10pm 21.9 23.4 17.7 77 2.6 NE 6 7 3 4 1016.9 - -
07/09:00pm 21.9 22.9 17.8 77 2.5 NE 9 13 5 7 1016.7 - -
07/08:50pm 21.9 22.9 17.7 77 2.6 NE 9 11 5 6 1016.4 - -
07/08:40pm 21.9 22.5 17.6 76 2.7 NE 11 13 6 7 1016.4 - -
07/08:30pm 21.8 22.7 17.5 76 2.7 NE 9 13 5 7 1016.4 - -
07/08:20pm 21.7 23.1 17.4 76 2.6 ENE 6 9 3 5 1016.2 - -
07/08:10pm 21.7 23.1 17.4 76 2.6 ENE 6 9 3 5 1016.1 - -
07/08:00pm 21.6 23.0 17.4 77 2.6 ENE 6 9 3 5 1016.1 - -
07/07:50pm 21.6 22.8 17.4 77 2.6 ENE 7 9 4 5 1016.1 - -
07/07:40pm 21.5 22.9 17.4 77 2.5 ENE 6 7 3 4 1016.1 - -
07/07:30pm 21.5 22.9 17.3 77 2.6 ENE 6 9 3 5 1016.1 - -
07/07:20pm 21.4 22.8 17.3 77 2.5 ENE 6 7 3 4 1016.1 - -
07/06:50pm 21.4 23.5 17.3 77 2.5 ENE 2 4 1 2 1016.0 - -
07/06:40pm 21.4 23.2 17.3 77 2.5 ENE 4 6 2 3 1015.9 - -
07/06:30pm 21.4 23.2 17.3 77 2.5 ENE 4 6 2 3 1015.9 - -
07/06:20pm 21.3 23.0 17.2 77 2.5 ENE 4 6 2 3 1015.9 - -
07/06:10pm 21.3 23.4 17.2 77 2.5 ENE 2 4 1 2 1016.0 - -
07/06:00pm 21.3 23.7 17.1 77 2.6 CALM 0 4 0 2 1016.0 - -
07/05:50pm 21.2 23.6 17.0 77 2.6 CALM 0 2 0 1 1016.0 - -
07/05:40pm 21.2 23.6 17.0 77 2.6 CALM 0 2 0 1 1016.1 - -
07/05:30pm 21.3 23.7 17.0 76 2.6 CALM 0 0 0 0 1016.0 - -
07/05:20pm 21.3 23.7 17.0 76 2.6 CALM 0 0 0 0 1015.9 - -
07/05:10pm 21.3 23.7 17.0 76 2.6 CALM 0 2 0 1 1016.0 - -
07/05:00pm 21.3 23.7 17.0 76 2.6 CALM 0 2 0 1 1015.9 - -
07/04:50pm 21.3 23.7 17.0 76 2.6 CALM 0 2 0 1 1016.0 - -
07/04:40pm 21.3 23.7 16.9 76 2.7 CALM 0 2 0 1 1016.0 - -
07/04:30pm 21.3 23.6 16.8 75 2.7 CALM 0 2 0 1 1016.1 - -
07/04:20pm 21.3 23.6 16.8 75 2.7 CALM 0 2 0 1 1016.1 - -
07/04:10pm 21.3 23.6 16.7 75 2.8 CALM 0 2 0 1 1016.2 - -
07/04:00pm 21.3 23.6 16.7 75 2.8 CALM 0 0 0 0 1016.2 - -
07/03:50pm 21.4 23.7 16.7 74 2.9 CALM 0 2 0 1 1016.2 - -
07/03:40pm 21.5 23.8 16.7 74 2.9 CALM 0 0 0 0 1016.1 - -
07/03:30pm 21.5 23.8 16.7 74 2.9 CALM 0 0 0 0 1016.3 - -
07/03:20pm 21.5 23.7 16.6 73 3.0 CALM 0 0 0 0 1016.4 - -
07/03:10pm 21.6 23.9 16.8 74 2.9 CALM 0 0 0 0 1016.5 - -
07/03:00pm 21.8 24.1 16.8 73 3.1 CALM 0 0 0 0 1016.5 - -
07/02:50pm 21.9 24.3 16.9 73 3.1 CALM 0 0 0 0 1016.4 - -
07/02:40pm 22.0 24.4 16.9 73 3.1 CALM 0 0 0 0 1016.4 - -
07/02:30pm 21.9 24.3 16.9 73 3.1 CALM 0 2 0 1 1016.5 - -
07/02:20pm 21.9 24.3 17.0 73 3.0 CALM 0 2 0 1 1016.4 - -
07/02:10pm 22.0 24.0 16.9 73 3.1 NNE 2 2 1 1 1016.3 - -
07/02:00pm 22.2 24.6 16.9 72 3.2 CALM 0 2 0 1 1016.3 - -
07/01:50pm 22.3 24.7 17.0 72 3.3 CALM 0 2 0 1 1016.5 - -
07/01:40pm 22.3 24.7 17.0 72 3.3 CALM 0 2 0 1 1016.6 - -
07/01:30pm 22.2 24.6 16.9 72 3.2 CALM 0 2 0 1 1016.4 - -
07/01:20pm 22.4 24.8 16.9 71 3.4 CALM 0 4 0 2 1016.5 - -
07/01:10pm 22.5 24.8 16.8 70 3.5 CALM 0 4 0 2 1016.5 - -
07/01:00pm 22.6 24.5 16.8 69 3.6 NNE 2 4 1 2 1016.5 - -
07/12:50pm 22.7 24.7 16.9 70 3.6 NNE 2 4 1 2 1016.6 - -
07/12:40pm 22.6 24.6 16.9 70 3.5 NNE 2 4 1 2 1016.6 - -
07/12:30pm 22.6 24.2 16.8 69 3.6 N 4 6 2 3 1016.5 - -
07/12:20pm 22.8 24.4 16.8 69 3.7 NNE 4 6 2 3 1016.4 - -
07/12:10pm 22.9 24.5 17.0 69 3.6 NNE 4 6 2 3 1016.6 - -
07/12:00pm 23.0 24.7 17.1 69 3.6 N 4 6 2 3 1016.5 - -
07/11:50am 23.2 25.0 17.3 69 3.6 N 4 7 2 4 1016.5 - -
07/11:40am 23.2 24.9 17.2 69 3.7 N 4 7 2 4 1016.5 - -
07/11:30am 23.3 25.0 17.1 68 3.8 N 4 7 2 4 1016.5 - -
07/11:20am 23.2 24.8 17.0 68 3.8 N 4 6 2 3 1016.4 - -
07/11:10am 23.4 25.0 16.9 67 4.0 N 4 7 2 4 1016.4 - -
07/11:00am 23.6 25.2 17.0 66 4.1 N 4 6 2 3 1016.4 - -
07/10:50am 23.7 25.4 17.1 66 4.1 N 4 7 2 4 1016.3 - -
07/10:40am 23.8 25.6 17.3 67 4.0 N 4 7 2 4 1016.3 - -
07/10:30am 23.5 24.9 17.3 68 3.8 N 6 7 3 4 1016.3 - -
07/10:20am 23.2 24.4 17.3 69 3.6 N 7 9 4 5 1016.3 - -
07/10:10am 22.8 23.5 17.0 70 3.6 NNE 9 11 5 6 1016.2 - -
07/10:00am 22.7 22.9 16.8 69 3.6 NNE 11 13 6 7 1016.1 - -
07/09:50am 22.8 23.0 16.8 69 3.7 NNE 11 13 6 7 1016.1 - -
07/09:40am 22.9 23.1 16.7 68 3.8 NNE 11 15 6 8 1016.0 - -
07/09:30am 23.0 23.2 16.8 68 3.8 NNE 11 15 6 8 1016.1 - -
07/09:20am 23.0 23.3 16.9 68 3.7 NNE 11 15 6 8 1016.2 - -
07/09:10am 22.9 22.8 16.9 69 3.7 NNE 13 15 7 8 1016.3 - -
07/09:00am 23.0 23.0 17.1 69 3.6 N 13 15 7 8 1016.2 - -
07/08:50am 22.6 22.1 16.9 70 3.5 N 15 19 8 10 1016.1 - -
07/08:40am 22.4 21.4 16.6 69 3.5 NNE 17 19 9 10 1016.0 - -
07/08:30am 22.2 21.2 16.5 70 3.5 NNE 17 20 9 11 1016.0 - -
07/08:20am 21.9 21.3 16.6 72 3.2 NNE 15 19 8 10 1015.8 - -
07/08:10am 21.4 19.9 16.4 73 3.0 NNE 19 22 10 12 1015.7 - -
07/08:00am 20.9 18.8 16.3 75 2.8 NNE 22 26 12 14 1015.6 - -
07/07:50am 20.5 18.4 16.2 76 2.6 NNE 22 26 12 14 1015.4 - -
07/07:40am 20.1 17.5 15.9 77 2.5 NE 24 28 13 15 1015.3 - -
07/07:30am 20.0 17.0 15.8 77 2.5 NE 26 28 14 15 1015.2 - -
07/07:20am 20.0 17.3 15.7 76 2.6 NE 24 28 13 15 1015.2 - -
07/07:10am 20.1 17.5 15.8 76 2.6 NE 24 28 13 15 1015.2 - -
07/07:00am 20.0 16.9 15.7 76 2.6 NE 26 30 14 16 1015.0 - -
07/06:50am 20.1 16.7 15.7 76 2.6 NE 28 30 15 16 1015.0 - -
07/06:40am 20.1 17.1 15.8 76 2.6 NE 26 28 14 15 1015.0 - -
07/06:30am 20.2 17.2 15.8 76 2.6 NE 26 30 14 16 1015.0 - -
07/06:20am 20.2 17.2 15.8 76 2.6 NE 26 30 14 16 1014.9 - -
07/06:00am 20.3 17.2 15.7 75 2.7 NE 26 30 14 16 1015.1 - -
07/05:50am 20.4 17.0 15.8 75 2.7 NE 28 32 15 17 1015.0 - -
07/05:40am 20.3 16.9 15.7 75 2.7 NE 28 33 15 18 1014.9 - -
07/05:30am 20.3 16.5 15.7 75 2.7 NE 30 33 16 18 1014.9 - -
07/05:20am 20.4 16.2 15.7 74 2.8 NE 32 35 17 19 1015.0 - -
07/05:10am 20.4 16.6 15.7 74 2.8 NE 30 33 16 18 1015.1 - -
07/05:00am 20.5 16.7 15.8 74 2.8 NE 30 35 16 19 1015.2 - -
07/04:50am 20.5 16.7 15.7 74 2.9 NE 30 35 16 19 1015.2 - -
07/04:40am 20.5 16.3 15.7 74 2.9 NE 32 37 17 20 1015.2 - -
07/04:30am 20.5 16.3 15.7 74 2.9 NE 32 37 17 20 1015.3 - -
07/04:20am 20.6 16.2 15.6 73 3.0 NE 33 37 18 20 1015.3 - -
07/04:10am 20.6 16.2 15.6 73 3.0 NE 33 39 18 21 1015.3 - -
07/04:00am 20.7 15.9 15.6 72 3.0 NE 35 41 19 22 1015.4 - -
07/03:50am 20.7 15.9 15.7 73 3.0 NE 35 41 19 22 1015.5 - -
07/03:40am 20.8 15.6 15.6 72 3.1 NE 37 41 20 22 1015.6 - -
07/03:30am 20.8 16.0 15.6 72 3.1 NE 35 43 19 23 1015.6 - -
07/03:20am 20.8 14.7 15.3 71 3.3 NE 41 44 22 24 1015.6 - -
07/03:10am 20.8 15.2 15.4 71 3.2 NE 39 44 21 24 1015.7 - -
07/03:00am 20.8 15.1 15.3 71 3.3 NE 39 44 21 24 1015.8 - -
07/02:50am 20.9 15.7 15.5 71 3.2 NE 37 43 20 23 1016.0 - -
07/02:40am 20.9 15.2 15.3 70 3.3 NE 39 46 21 25 1016.1 - -
07/02:30am 20.8 14.8 15.4 71 3.2 NE 41 48 22 26 1016.1 - -
07/02:20am 20.8 14.8 15.5 71 3.2 NE 41 46 22 25 1016.2 - -
07/02:10am 20.9 15.3 15.6 71 3.2 NE 39 46 21 25 1016.2 - -
07/02:00am 20.9 15.3 15.5 71 3.2 NE 39 48 21 26 1016.3 - -
07/01:50am 20.8 14.8 15.4 71 3.2 NE 41 46 22 25 1016.3 - -
07/01:40am 20.9 15.0 15.6 71 3.2 NE 41 46 22 25 1016.3 - -
07/01:30am 20.9 15.3 15.5 71 3.2 NE 39 46 21 25 1016.3 - -
07/01:20am 20.9 15.7 15.5 71 3.2 NE 37 44 20 24 1016.4 - -
07/01:10am 20.9 14.9 15.5 71 3.2 NE 41 46 22 25 1016.5 - -
07/01:00am 20.9 15.3 15.4 71 3.3 NE 39 46 21 25 1016.6 - -
07/12:50am 20.9 14.9 15.4 71 3.3 NE 41 46 22 25 1016.7 - -
07/12:40am 21.0 16.2 15.6 71 3.2 NE 35 43 19 23 1016.8 - -
07/12:30am 21.0 15.9 15.7 71 3.2 NE 37 44 20 24 1016.9 - -
07/12:20am 21.0 16.2 15.6 71 3.2 NE 35 44 19 24 1017.0 - -
07/12:10am 21.0 15.7 15.4 70 3.3 NE 37 43 20 23 1017.0 - -
07/12:00am 21.0 16.7 15.5 71 3.3 NE 32 43 17 23 1017.2 - -
 
Date/Time
EDT
Temp
°C
App
Temp
°C
Dew
Point
Rel
Hum
%
Delta-T
°C
Wind Press
QNH
hPa
Press
MSL
hPa
Rain
since 9 am
mm
Dir
 
Spd
km/h
Gust
km/h
Spd
kts
Gust
kts
06/11:50pm 21.0 17.1 15.4 70 3.3 NE 30 39 16 21 1017.1 - -
06/11:40pm 21.0 16.7 15.3 70 3.4 NE 32 41 17 22 1017.1 - -
06/11:30pm 21.0 17.0 15.2 69 3.4 NE 30 43 16 23 1017.1 - -
06/11:20pm 21.0 16.4 15.2 69 3.4 NE 33 41 18 22 1017.1 - -
06/11:10pm 21.0 16.6 15.2 69 3.4 NE 32 41 17 22 1017.1 - -
06/11:00pm 21.0 17.0 15.3 70 3.4 NE 30 41 16 22 1017.1 - -
06/10:50pm 21.0 16.6 15.1 69 3.5 NE 32 43 17 23 1017.1 - -
06/10:40pm 21.0 16.6 15.1 69 3.5 ENE 32 43 17 23 1017.0 - -
06/10:30pm 21.0 16.6 15.2 69 3.4 ENE 32 44 17 24 1016.8 - -
06/10:20pm 21.0 16.4 15.2 69 3.4 ENE 33 43 18 23 1016.7 - -
06/10:10pm 21.0 16.7 15.5 71 3.3 ENE 32 44 17 24 1016.8 - -
06/10:00pm 21.0 16.2 15.5 71 3.3 ENE 35 46 19 25 1016.6 - -
06/09:50pm 21.0 16.2 15.5 71 3.3 ENE 35 48 19 26 1016.6 - -
06/09:40pm 21.0 15.4 15.4 70 3.3 ENE 39 44 21 24 1016.6 - -
06/09:30pm 21.1 15.8 15.4 70 3.4 ENE 37 44 20 24 1016.6 - -
06/09:20pm 21.1 16.2 15.4 70 3.4 ENE 35 43 19 23 1016.7 - -
06/09:10pm 21.1 16.2 15.4 70 3.4 ENE 35 43 19 23 1016.7 - -
06/09:00pm 21.1 15.8 15.2 69 3.5 ENE 37 43 20 23 1016.6 - -
06/08:50pm 21.1 15.8 15.2 69 3.5 ENE 37 43 20 23 1016.6 - -
06/08:40pm 21.1 16.1 15.1 68 3.5 ENE 35 43 19 23 1016.7 - -
06/08:30pm 21.1 16.1 15.0 68 3.6 ENE 35 41 19 22 1016.7 - -
06/08:20pm 21.1 16.2 15.2 69 3.5 ENE 35 41 19 22 1016.6 - -
06/08:10pm 21.1 16.2 15.3 69 3.4 ENE 35 41 19 22 1016.6 - -
06/08:00pm 21.2 16.7 15.5 70 3.4 ENE 33 41 18 22 1016.6 - -
06/07:50pm 21.2 16.3 15.4 69 3.5 ENE 35 43 19 23 1016.4 - -
06/07:40pm 21.1 16.3 15.5 70 3.3 ENE 35 41 19 22 1016.4 - -
06/07:30pm 21.1 16.3 15.7 71 3.2 ENE 35 41 19 22 1016.4 - -
06/07:20pm 21.1 16.8 16.0 72 3.1 ENE 33 39 18 21 1016.3 - -
06/07:10pm 21.0 16.7 16.0 73 3.0 ENE 33 39 18 21 1016.4 - -
06/07:00pm 21.1 17.0 16.0 72 3.1 ENE 32 37 17 20 1016.4 - -
06/06:50pm 21.1 16.7 15.7 71 3.2 ENE 33 39 18 21 1016.4 - -
06/06:40pm 21.0 16.6 15.7 71 3.2 ENE 33 39 18 21 1016.4 - -
06/06:30pm 21.1 17.0 15.9 72 3.1 ENE 32 37 17 20 1016.5 - -
06/06:20pm 21.1 17.4 15.9 72 3.1 ENE 30 35 16 19 1016.7 - -
06/06:10pm 21.1 16.9 15.7 71 3.2 ENE 32 37 17 20 1016.7 - -
06/06:00pm 21.0 16.8 15.6 71 3.2 ENE 32 37 17 20 1016.7 - -
06/05:50pm 21.1 16.9 15.6 71 3.3 ENE 32 37 17 20 1016.8 - -
06/05:40pm 21.0 16.7 15.5 71 3.3 ENE 32 37 17 20 1016.8 - -
06/05:30pm 21.1 16.8 15.4 70 3.4 ENE 32 37 17 20 1016.9 - -
06/05:20pm 21.1 17.1 15.3 69 3.4 ENE 30 35 16 19 1017.0 - -
06/05:10pm 21.0 16.6 15.2 69 3.4 ENE 32 35 17 19 1017.0 - -
06/05:00pm 21.1 17.1 15.3 69 3.4 ENE 30 37 16 20 1017.0 - -
06/04:50pm 21.0 16.7 15.4 70 3.3 ENE 32 37 17 20 1017.1 - -
06/04:40pm 21.0 17.1 15.4 70 3.3 ENE 30 35 16 19 1017.3 - -
06/04:30pm 21.0 16.8 15.6 71 3.2 ENE 32 37 17 20 1017.3 - -
06/04:20pm 21.0 17.2 15.8 72 3.1 ENE 30 37 16 20 1017.4 - -
06/04:10pm 21.1 18.2 16.1 73 3.0 ENE 26 35 14 19 1017.5 - -
06/04:00pm 21.0 18.1 16.1 73 2.9 ENE 26 33 14 18 1017.6 - -
06/03:40pm 21.0 18.1 16.1 73 2.9 ENE 26 32 14 17 1017.9 - -
06/03:30pm 21.1 19.3 16.0 72 3.1 NE 20 30 11 16 1017.9 - -
06/03:20pm 21.0 18.8 15.9 72 3.1 ENE 22 30 12 16 1018.0 - -
06/03:10pm 21.0 18.8 16.0 73 3.0 ENE 22 28 12 15 1018.1 - -
06/03:00pm 21.0 19.2 16.0 73 3.0 ENE 20 24 11 13 1018.2 - -
06/02:50pm 21.1 19.3 16.0 72 3.1 ENE 20 26 11 14 1018.4 - -
06/02:40pm 21.2 19.6 16.1 72 3.1 ENE 19 24 10 13 1018.6 - -
06/02:30pm 21.3 20.1 16.1 72 3.1 ENE 17 24 9 13 1018.6 - -
06/02:20pm 21.4 19.3 16.2 72 3.1 ENE 22 28 12 15 1018.7 - -
06/02:10pm 21.5 19.5 16.5 73 3.0 ENE 22 28 12 15 1018.7 - -
06/02:00pm 21.7 20.4 16.8 73 3.0 ENE 19 26 10 14 1018.8 - -
06/01:50pm 21.5 20.9 16.7 74 2.9 NE 15 24 8 13 1018.9 - -
06/01:40pm 21.6 20.2 16.6 73 3.0 NE 19 22 10 12 1019.0 - -
06/01:30pm 21.7 20.1 16.4 72 3.2 NE 20 22 11 12 1019.2 - -
06/01:20pm 21.6 20.4 16.0 70 3.4 NE 17 24 9 13 1019.2 - -
06/01:10pm 21.7 19.9 16.0 70 3.4 NE 20 26 11 14 1019.2 - -
06/01:00pm 21.7 19.9 15.9 69 3.5 NE 20 24 11 13 1019.2 - -
06/12:50pm 21.7 20.1 15.9 69 3.5 NE 19 26 10 14 1019.2 - -
06/12:40pm 21.7 20.8 15.8 69 3.5 NE 15 20 8 11 1019.3 - -
06/12:30pm 21.8 20.9 15.8 68 3.6 NE 15 20 8 11 1019.3 - -
06/12:20pm 21.9 20.6 15.9 68 3.6 NE 17 22 9 12 1019.4 - -
06/12:10pm 21.9 21.4 15.9 68 3.6 NE 13 19 7 10 1019.4 - -
06/12:00pm 22.0 21.5 15.9 68 3.7 NE 13 17 7 9 1019.4 - -
06/11:50am 22.0 21.6 16.1 69 3.6 NE 13 19 7 10 1019.5 - -
06/11:40am 22.0 21.1 15.9 68 3.7 NE 15 19 8 10 1019.5 - -
06/11:30am 21.8 20.4 15.6 68 3.7 NE 17 20 9 11 1019.5 - -
06/11:20am 21.9 19.9 15.5 67 3.8 NE 20 24 11 13 1019.6 - -
06/11:10am 21.7 19.7 15.4 67 3.8 NE 20 24 11 13 1019.6 - -
06/11:00am 21.3 19.5 15.4 69 3.5 NE 19 24 10 13 1019.6 - -
06/10:50am 20.8 19.9 15.8 73 3.0 NE 15 22 8 12 1019.7 - -
06/10:40am 20.0 19.5 15.8 77 2.5 NE 13 20 7 11 1019.8 - -
06/10:30am 19.7 17.6 16.1 80 2.2 NE 22 28 12 15 1019.8 - -
06/10:20am 20.2 17.4 16.3 78 2.3 NE 26 28 14 15 1019.8 - -
06/10:10am 20.5 18.7 16.1 76 2.6 NE 20 32 11 17 1019.8 - -
06/10:00am 20.5 20.0 15.9 75 2.8 NE 13 17 7 9 1019.9 - -
06/09:50am 20.6 19.7 15.9 74 2.8 NNE 15 20 8 11 1019.9 - -
06/09:40am 21.1 18.8 15.8 71 3.2 NNE 22 30 12 16 1019.8 - -
06/09:30am 21.4 20.0 15.6 69 3.5 NE 17 24 9 13 1019.8 - -
06/09:20am 21.9 20.9 15.7 68 3.7 NE 15 22 8 12 1019.7 - -
06/09:10am 22.1 21.1 15.6 66 3.9 NE 15 22 8 12 1019.6 - -
06/09:00am 22.5 21.5 15.5 64 4.2 NE 15 22 8 12 1019.5 - -
06/08:50am 22.5 21.3 16.0 66 3.9 NE 17 22 9 12 1019.5 - -
06/08:40am 21.8 20.8 15.6 68 3.7 NE 15 22 8 12 1019.4 - -
06/08:30am 21.5 19.7 15.5 68 3.6 NE 19 26 10 14 1019.3 - -
06/08:20am 21.3 20.3 15.6 70 3.4 NE 15 24 8 13 1019.2 - -
06/08:10am 20.6 18.8 15.4 72 3.1 NE 19 22 10 12 1019.2 - -
06/08:00am 19.9 17.8 15.3 75 2.7 NE 20 26 11 14 1019.1 - -
06/07:50am 19.8 18.0 15.6 77 2.5 NE 19 24 10 13 1019.1 - -
06/07:40am 19.8 18.9 15.8 78 2.4 NE 15 20 8 11 1019.1 - -
06/07:30am 19.6 18.6 15.7 78 2.3 NE 15 22 8 12 1019.1 - -
06/07:20am 19.5 18.6 15.8 79 2.2 NE 15 20 8 11 1019.1 - -
06/07:10am 19.5 18.6 15.9 80 2.1 NE 15 19 8 10 1018.9 - -
06/07:00am 19.6 18.0 16.1 80 2.1 ENE 19 26 10 14 1018.9 - -
06/06:50am 19.6 18.0 15.9 79 2.2 ENE 19 26 10 14 1018.8 - -
06/06:40am 19.6 17.9 15.8 79 2.3 ENE 19 24 10 13 1018.9 - -
06/06:30am 19.8 18.5 15.8 78 2.4 ENE 17 26 9 14 1018.8 - -
06/06:20am 19.8 18.0 15.6 77 2.5 ENE 19 28 10 15 1018.8 - -
06/06:10am 19.7 18.4 15.7 78 2.4 NE 17 22 9 12 1018.8 - -

Other Formats:

Comma delimited format used in spreadsheet applications
http://www.bom.gov.au/fwo/IDV60801/IDV60801.55039.axf

JavaScript Object Notation format (JSON) in row-major order
http://www.bom.gov.au/fwo/IDV60801/IDV60801.55039.json